sensor_id;sensor_type;location;lat;lon;timestamp;temperature;humidity
17571;DHT22;8903;52.220;20.978;2023-04-03T00:02:13;2.70;99.90
17571;DHT22;8903;52.220;20.978;2023-04-03T00:04:40;2.60;99.90
17571;DHT22;8903;52.220;20.978;2023-04-03T00:07:07;2.60;99.90
17571;DHT22;8903;52.220;20.978;2023-04-03T00:09:34;2.60;99.90
17571;DHT22;8903;52.220;20.978;2023-04-03T00:12:02;2.50;99.90
17571;DHT22;8903;52.220;20.978;2023-04-03T00:14:29;2.50;99.90
17571;DHT22;8903;52.220;20.978;2023-04-03T00:16:56;2.40;99.90
17571;DHT22;8903;52.220;20.978;2023-04-03T00:19:23;2.40;99.90
17571;DHT22;8903;52.220;20.978;2023-04-03T00:21:50;2.40;99.90
17571;DHT22;8903;52.220;20.978;2023-04-03T00:24:19;2.30;99.90
17571;DHT22;8903;52.220;20.978;2023-04-03T00:26:46;2.30;99.90
17571;DHT22;8903;52.220;20.978;2023-04-03T00:29:14;2.20;99.90
17571;DHT22;8903;52.220;20.978;2023-04-03T00:31:41;2.20;99.90
17571;DHT22;8903;52.220;20.978;2023-04-03T00:34:08;2.20;99.90
17571;DHT22;8903;52.220;20.978;2023-04-03T00:36:35;2.10;99.90
17571;DHT22;8903;52.220;20.978;2023-04-03T00:39:02;2.10;99.90
17571;DHT22;8903;52.220;20.978;2023-04-03T00:41:30;2.10;99.90
17571;DHT22;8903;52.220;20.978;2023-04-03T00:43:57;2.10;99.90
17571;DHT22;8903;52.220;20.978;2023-04-03T00:46:26;2.00;99.90
17571;DHT22;8903;52.220;20.978;2023-04-03T00:48:53;2.00;99.90
17571;DHT22;8903;52.220;20.978;2023-04-03T00:51:24;2.00;99.90
17571;DHT22;8903;52.220;20.978;2023-04-03T00:53:54;2.00;99.90
17571;DHT22;8903;52.220;20.978;2023-04-03T00:56:25;1.90;99.90
17571;DHT22;8903;52.220;20.978;2023-04-03T00:58:55;1.90;99.90
17571;DHT22;8903;52.220;20.978;2023-04-03T01:01:27;1.80;99.90
17571;DHT22;8903;52.220;20.978;2023-04-03T01:03:55;1.80;99.90
17571;DHT22;8903;52.220;20.978;2023-04-03T01:06:28;1.80;99.90
17571;DHT22;8903;52.220;20.978;2023-04-03T01:09:03;1.80;99.90
17571;DHT22;8903;52.220;20.978;2023-04-03T01:11:31;1.70;99.90
17571;DHT22;8903;52.220;20.978;2023-04-03T01:14:00;1.70;99.90
17571;DHT22;8903;52.220;20.978;2023-04-03T01:16:29;1.70;99.90
17571;DHT22;8903;52.220;20.978;2023-04-03T01:18:59;1.70;99.90
17571;DHT22;8903;52.220;20.978;2023-04-03T01:22:01;1.60;99.90
17571;DHT22;8903;52.220;20.978;2023-04-03T01:24:35;1.60;99.90
17571;DHT22;8903;52.220;20.978;2023-04-03T01:27:08;1.60;99.90
17571;DHT22;8903;52.220;20.978;2023-04-03T01:29:37;1.60;99.90
17571;DHT22;8903;52.220;20.978;2023-04-03T01:32:06;1.50;99.90
17571;DHT22;8903;52.220;20.978;2023-04-03T01:34:33;1.50;99.90
17571;DHT22;8903;52.220;20.978;2023-04-03T01:37:01;1.50;99.90
17571;DHT22;8903;52.220;20.978;2023-04-03T01:39:28;1.50;99.90
17571;DHT22;8903;52.220;20.978;2023-04-03T01:41:55;1.40;99.90
17571;DHT22;8903;52.220;20.978;2023-04-03T01:44:29;1.40;99.90
17571;DHT22;8903;52.220;20.978;2023-04-03T01:46:56;1.40;99.90
17571;DHT22;8903;52.220;20.978;2023-04-03T01:49:26;1.30;99.90
17571;DHT22;8903;52.220;20.978;2023-04-03T01:51:53;1.30;99.90
17571;DHT22;8903;52.220;20.978;2023-04-03T01:54:21;1.30;99.90
17571;DHT22;8903;52.220;20.978;2023-04-03T01:56:48;1.30;99.90
17571;DHT22;8903;52.220;20.978;2023-04-03T01:59:15;1.20;99.90
17571;DHT22;8903;52.220;20.978;2023-04-03T02:01:44;1.20;99.90
17571;DHT22;8903;52.220;20.978;2023-04-03T02:04:12;1.10;99.90
17571;DHT22;8903;52.220;20.978;2023-04-03T02:06:41;1.10;99.90
17571;DHT22;8903;52.220;20.978;2023-04-03T02:09:11;1.10;99.90
17571;DHT22;8903;52.220;20.978;2023-04-03T02:11:38;1.00;99.90
17571;DHT22;8903;52.220;20.978;2023-04-03T02:14:05;1.10;99.90
17571;DHT22;8903;52.220;20.978;2023-04-03T02:16:33;1.00;99.90
17571;DHT22;8903;52.220;20.978;2023-04-03T02:19:00;1.00;99.90
17571;DHT22;8903;52.220;20.978;2023-04-03T02:21:29;1.00;99.90
17571;DHT22;8903;52.220;20.978;2023-04-03T02:23:57;1.00;99.90
17571;DHT22;8903;52.220;20.978;2023-04-03T02:26:24;1.00;99.90
17571;DHT22;8903;52.220;20.978;2023-04-03T02:28:51;1.00;99.90
17571;DHT22;8903;52.220;20.978;2023-04-03T02:31:18;0.90;99.90
17571;DHT22;8903;52.220;20.978;2023-04-03T02:33:47;0.90;99.90
17571;DHT22;8903;52.220;20.978;2023-04-03T02:36:15;0.90;99.90
17571;DHT22;8903;52.220;20.978;2023-04-03T02:38:47;0.90;99.90
17571;DHT22;8903;52.220;20.978;2023-04-03T02:41:16;0.80;99.90
17571;DHT22;8903;52.220;20.978;2023-04-03T02:43:43;0.80;99.90
17571;DHT22;8903;52.220;20.978;2023-04-03T02:46:10;0.80;99.90
17571;DHT22;8903;52.220;20.978;2023-04-03T02:48:37;0.80;99.90
17571;DHT22;8903;52.220;20.978;2023-04-03T02:51:04;0.70;99.90
17571;DHT22;8903;52.220;20.978;2023-04-03T02:53:32;0.70;99.90
17571;DHT22;8903;52.220;20.978;2023-04-03T02:56:06;0.70;99.90
17571;DHT22;8903;52.220;20.978;2023-04-03T02:58:34;0.70;99.90
17571;DHT22;8903;52.220;20.978;2023-04-03T03:01:04;0.70;99.90
17571;DHT22;8903;52.220;20.978;2023-04-03T03:03:31;0.60;99.90
17571;DHT22;8903;52.220;20.978;2023-04-03T03:06:03;0.60;99.90
17571;DHT22;8903;52.220;20.978;2023-04-03T03:08:30;0.60;99.90
17571;DHT22;8903;52.220;20.978;2023-04-03T03:10:57;0.60;99.90
17571;DHT22;8903;52.220;20.978;2023-04-03T03:13:24;0.60;99.90
17571;DHT22;8903;52.220;20.978;2023-04-03T03:15:52;0.50;99.90
17571;DHT22;8903;52.220;20.978;2023-04-03T03:18:19;0.50;99.90
17571;DHT22;8903;52.220;20.978;2023-04-03T03:20:51;0.40;99.90
17571;DHT22;8903;52.220;20.978;2023-04-03T03:23:19;0.40;99.90
17571;DHT22;8903;52.220;20.978;2023-04-03T03:25:46;0.40;99.90
17571;DHT22;8903;52.220;20.978;2023-04-03T03:28:13;0.30;99.90
17571;DHT22;8903;52.220;20.978;2023-04-03T03:30:40;0.30;99.90
17571;DHT22;8903;52.220;20.978;2023-04-03T03:33:09;0.20;99.90
17571;DHT22;8903;52.220;20.978;2023-04-03T03:35:36;0.20;99.90
17571;DHT22;8903;52.220;20.978;2023-04-03T03:38:03;0.20;99.90
17571;DHT22;8903;52.220;20.978;2023-04-03T03:40:31;0.10;99.90
17571;DHT22;8903;52.220;20.978;2023-04-03T03:42:58;0.10;99.90
17571;DHT22;8903;52.220;20.978;2023-04-03T03:45:25;0.10;99.90
17571;DHT22;8903;52.220;20.978;2023-04-03T03:47:52;0.00;99.90
17571;DHT22;8903;52.220;20.978;2023-04-03T03:50:21;0.00;99.90
17571;DHT22;8903;52.220;20.978;2023-04-03T03:52:49;0.00;99.90
17571;DHT22;8903;52.220;20.978;2023-04-03T03:55:16;0.00;99.90
17571;DHT22;8903;52.220;20.978;2023-04-03T03:57:47;0.00;99.90
17571;DHT22;8903;52.220;20.978;2023-04-03T04:00:15;0.00;99.90
17571;DHT22;8903;52.220;20.978;2023-04-03T04:02:46;-0.10;99.90
17571;DHT22;8903;52.220;20.978;2023-04-03T04:05:17;0.00;99.90
17571;DHT22;8903;52.220;20.978;2023-04-03T04:07:45;-0.10;99.90
17571;DHT22;8903;52.220;20.978;2023-04-03T04:10:13;-0.10;99.90
17571;DHT22;8903;52.220;20.978;2023-04-03T04:12:41;-0.10;99.90
17571;DHT22;8903;52.220;20.978;2023-04-03T04:15:10;-0.10;99.90
17571;DHT22;8903;52.220;20.978;2023-04-03T04:17:38;-0.10;99.90
17571;DHT22;8903;52.220;20.978;2023-04-03T04:20:10;-0.20;99.90
17571;DHT22;8903;52.220;20.978;2023-04-03T04:22:38;-0.20;99.90
17571;DHT22;8903;52.220;20.978;2023-04-03T04:25:08;-0.20;99.90
17571;DHT22;8903;52.220;20.978;2023-04-03T04:27:36;-0.20;99.90
17571;DHT22;8903;52.220;20.978;2023-04-03T04:30:06;-0.30;99.90
17571;DHT22;8903;52.220;20.978;2023-04-03T04:32:33;-0.20;99.90
17571;DHT22;8903;52.220;20.978;2023-04-03T04:35:01;-0.30;99.90
17571;DHT22;8903;52.220;20.978;2023-04-03T04:37:32;-0.30;99.90
17571;DHT22;8903;52.220;20.978;2023-04-03T04:39:59;-0.30;99.90
17571;DHT22;8903;52.220;20.978;2023-04-03T04:42:28;-0.20;99.90
17571;DHT22;8903;52.220;20.978;2023-04-03T04:44:55;-0.20;99.90
17571;DHT22;8903;52.220;20.978;2023-04-03T04:47:23;-0.20;99.90
17571;DHT22;8903;52.220;20.978;2023-04-03T04:49:50;-0.20;99.90
17571;DHT22;8903;52.220;20.978;2023-04-03T04:52:17;-0.20;99.90
17571;DHT22;8903;52.220;20.978;2023-04-03T04:54:45;-0.20;99.90
17571;DHT22;8903;52.220;20.978;2023-04-03T04:57:12;-0.10;99.90
17571;DHT22;8903;52.220;20.978;2023-04-03T04:59:40;-0.10;99.90
17571;DHT22;8903;52.220;20.978;2023-04-03T05:02:07;-0.10;99.90
17571;DHT22;8903;52.220;20.978;2023-04-03T05:04:35;0.00;99.90
17571;DHT22;8903;52.220;20.978;2023-04-03T05:07:09;0.00;99.90
17571;DHT22;8903;52.220;20.978;2023-04-03T05:09:37;0.00;99.90
17571;DHT22;8903;52.220;20.978;2023-04-03T05:12:04;0.00;99.90
17571;DHT22;8903;52.220;20.978;2023-04-03T05:14:37;0.10;99.90
17571;DHT22;8903;52.220;20.978;2023-04-03T05:17:08;0.10;99.90
17571;DHT22;8903;52.220;20.978;2023-04-03T05:19:39;0.20;99.90
17571;DHT22;8903;52.220;20.978;2023-04-03T05:22:08;0.20;99.90
17571;DHT22;8903;52.220;20.978;2023-04-03T05:24:35;0.20;99.90
17571;DHT22;8903;52.220;20.978;2023-04-03T05:27:03;0.20;99.90
17571;DHT22;8903;52.220;20.978;2023-04-03T05:29:34;0.30;99.90
17571;DHT22;8903;52.220;20.978;2023-04-03T05:32:03;0.30;99.90
17571;DHT22;8903;52.220;20.978;2023-04-03T05:34:32;0.30;99.90
17571;DHT22;8903;52.220;20.978;2023-04-03T05:36:59;0.40;99.90
17571;DHT22;8903;52.220;20.978;2023-04-03T05:39:28;0.40;99.90
17571;DHT22;8903;52.220;20.978;2023-04-03T05:41:57;0.40;99.90
17571;DHT22;8903;52.220;20.978;2023-04-03T05:44:25;0.50;99.90
17571;DHT22;8903;52.220;20.978;2023-04-03T05:46:53;0.40;99.90
17571;DHT22;8903;52.220;20.978;2023-04-03T05:49:20;0.50;99.90
17571;DHT22;8903;52.220;20.978;2023-04-03T05:51:49;0.50;99.90
17571;DHT22;8903;52.220;20.978;2023-04-03T05:54:24;0.50;99.90
17571;DHT22;8903;52.220;20.978;2023-04-03T05:56:57;0.50;99.90
17571;DHT22;8903;52.220;20.978;2023-04-03T05:59:25;0.60;99.90
17571;DHT22;8903;52.220;20.978;2023-04-03T06:01:54;0.60;99.90
17571;DHT22;8903;52.220;20.978;2023-04-03T06:04:22;0.60;99.90
17571;DHT22;8903;52.220;20.978;2023-04-03T06:06:52;0.60;99.90
17571;DHT22;8903;52.220;20.978;2023-04-03T06:09:22;0.60;99.90
17571;DHT22;8903;52.220;20.978;2023-04-03T06:11:49;0.60;99.90
17571;DHT22;8903;52.220;20.978;2023-04-03T06:14:17;0.70;99.90
17571;DHT22;8903;52.220;20.978;2023-04-03T06:16:44;0.70;99.90
17571;DHT22;8903;52.220;20.978;2023-04-03T06:19:12;0.60;99.90
17571;DHT22;8903;52.220;20.978;2023-04-03T06:21:44;0.60;99.90
17571;DHT22;8903;52.220;20.978;2023-04-03T06:24:15;0.60;99.90
17571;DHT22;8903;52.220;20.978;2023-04-03T06:26:43;0.60;99.90
17571;DHT22;8903;52.220;20.978;2023-04-03T06:29:11;0.60;99.90
17571;DHT22;8903;52.220;20.978;2023-04-03T06:31:38;0.60;99.90
17571;DHT22;8903;52.220;20.978;2023-04-03T06:34:05;0.70;99.90
17571;DHT22;8903;52.220;20.978;2023-04-03T06:36:33;0.70;99.90
17571;DHT22;8903;52.220;20.978;2023-04-03T06:39:01;0.80;99.90
17571;DHT22;8903;52.220;20.978;2023-04-03T06:41:30;0.80;99.90
17571;DHT22;8903;52.220;20.978;2023-04-03T06:43:57;0.80;99.90
17571;DHT22;8903;52.220;20.978;2023-04-03T06:46:26;0.90;99.90
17571;DHT22;8903;52.220;20.978;2023-04-03T06:48:54;1.10;99.90
17571;DHT22;8903;52.220;20.978;2023-04-03T06:51:23;1.20;99.90
17571;DHT22;8903;52.220;20.978;2023-04-03T06:54:16;1.30;99.90
17571;DHT22;8903;52.220;20.978;2023-04-03T06:56:45;1.30;99.90
17571;DHT22;8903;52.220;20.978;2023-04-03T06:59:15;1.30;99.90
17571;DHT22;8903;52.220;20.978;2023-04-03T07:01:42;1.40;99.90
17571;DHT22;8903;52.220;20.978;2023-04-03T07:04:09;1.30;99.90
17571;DHT22;8903;52.220;20.978;2023-04-03T07:06:36;1.30;99.90
17571;DHT22;8903;52.220;20.978;2023-04-03T07:09:03;1.30;99.90
17571;DHT22;8903;52.220;20.978;2023-04-03T07:11:30;1.40;99.90
17571;DHT22;8903;52.220;20.978;2023-04-03T07:13:59;1.40;99.90
17571;DHT22;8903;52.220;20.978;2023-04-03T07:16:26;1.50;99.90
17571;DHT22;8903;52.220;20.978;2023-04-03T07:18:53;1.60;99.90
17571;DHT22;8903;52.220;20.978;2023-04-03T07:21:20;1.60;99.90
17571;DHT22;8903;52.220;20.978;2023-04-03T07:23:47;1.80;99.90
17571;DHT22;8903;52.220;20.978;2023-04-03T07:26:13;1.90;99.90
17571;DHT22;8903;52.220;20.978;2023-04-03T07:28:41;1.90;99.90
17571;DHT22;8903;52.220;20.978;2023-04-03T07:31:12;1.90;99.90
17571;DHT22;8903;52.220;20.978;2023-04-03T07:33:40;1.90;99.90
17571;DHT22;8903;52.220;20.978;2023-04-03T07:36:09;1.80;99.90
17571;DHT22;8903;52.220;20.978;2023-04-03T07:38:36;2.00;99.90
17571;DHT22;8903;52.220;20.978;2023-04-03T07:41:04;2.10;99.90
17571;DHT22;8903;52.220;20.978;2023-04-03T07:43:31;2.10;99.90
17571;DHT22;8903;52.220;20.978;2023-04-03T07:46:00;2.10;99.90
17571;DHT22;8903;52.220;20.978;2023-04-03T07:48:28;2.10;99.90
17571;DHT22;8903;52.220;20.978;2023-04-03T07:50:59;2.20;99.90
17571;DHT22;8903;52.220;20.978;2023-04-03T07:53:26;2.30;99.90
17571;DHT22;8903;52.220;20.978;2023-04-03T07:55:53;2.40;99.90
17571;DHT22;8903;52.220;20.978;2023-04-03T07:58:22;2.50;99.90
17571;DHT22;8903;52.220;20.978;2023-04-03T08:00:50;2.60;99.90
17571;DHT22;8903;52.220;20.978;2023-04-03T08:03:17;2.60;99.90
17571;DHT22;8903;52.220;20.978;2023-04-03T08:05:47;2.70;99.90
17571;DHT22;8903;52.220;20.978;2023-04-03T08:08:16;2.70;99.90
17571;DHT22;8903;52.220;20.978;2023-04-03T08:10:43;2.70;99.90
17571;DHT22;8903;52.220;20.978;2023-04-03T08:13:14;2.70;99.90
17571;DHT22;8903;52.220;20.978;2023-04-03T08:15:41;2.70;99.90
17571;DHT22;8903;52.220;20.978;2023-04-03T08:18:09;2.70;99.90
17571;DHT22;8903;52.220;20.978;2023-04-03T08:20:38;2.70;99.90
17571;DHT22;8903;52.220;20.978;2023-04-03T08:23:07;2.70;99.90
17571;DHT22;8903;52.220;20.978;2023-04-03T08:25:37;2.70;99.90
17571;DHT22;8903;52.220;20.978;2023-04-03T08:28:04;2.80;99.90
17571;DHT22;8903;52.220;20.978;2023-04-03T08:30:31;2.80;99.90
17571;DHT22;8903;52.220;20.978;2023-04-03T08:33:00;3.00;99.90
17571;DHT22;8903;52.220;20.978;2023-04-03T08:35:27;3.00;99.90
17571;DHT22;8903;52.220;20.978;2023-04-03T08:37:54;3.20;99.90
17571;DHT22;8903;52.220;20.978;2023-04-03T08:40:24;3.30;99.00
17571;DHT22;8903;52.220;20.978;2023-04-03T08:43:02;3.10;99.20
17571;DHT22;8903;52.220;20.978;2023-04-03T08:45:42;3.10;99.00
17571;DHT22;8903;52.220;20.978;2023-04-03T08:48:13;3.00;99.50
17571;DHT22;8903;52.220;20.978;2023-04-03T08:50:44;3.10;99.10
17571;DHT22;8903;52.220;20.978;2023-04-03T08:53:15;3.30;98.70
17571;DHT22;8903;52.220;20.978;2023-04-03T08:55:46;3.30;98.70
17571;DHT22;8903;52.220;20.978;2023-04-03T08:58:15;3.40;98.70
17571;DHT22;8903;52.220;20.978;2023-04-03T09:00:46;3.40;98.40
17571;DHT22;8903;52.220;20.978;2023-04-03T09:03:15;3.40;98.50
17571;DHT22;8903;52.220;20.978;2023-04-03T09:05:46;3.50;98.30
17571;DHT22;8903;52.220;20.978;2023-04-03T09:08:21;3.60;98.40
17571;DHT22;8903;52.220;20.978;2023-04-03T09:10:59;3.70;97.40
17571;DHT22;8903;52.220;20.978;2023-04-03T09:13:33;3.60;97.40
17571;DHT22;8903;52.220;20.978;2023-04-03T09:16:10;3.60;97.40
17571;DHT22;8903;52.220;20.978;2023-04-03T09:18:43;3.60;97.40
17571;DHT22;8903;52.220;20.978;2023-04-03T09:21:18;3.70;96.90
17571;DHT22;8903;52.220;20.978;2023-04-03T09:23:50;3.70;96.90
17571;DHT22;8903;52.220;20.978;2023-04-03T09:26:23;3.70;97.00
17571;DHT22;8903;52.220;20.978;2023-04-03T09:28:52;3.60;96.50
17571;DHT22;8903;52.220;20.978;2023-04-03T09:31:23;3.50;96.00
17571;DHT22;8903;52.220;20.978;2023-04-03T09:33:52;3.50;96.00
17571;DHT22;8903;52.220;20.978;2023-04-03T09:36:40;3.60;95.30
17571;DHT22;8903;52.220;20.978;2023-04-03T09:39:12;3.90;95.70
17571;DHT22;8903;52.220;20.978;2023-04-03T09:41:41;4.10;95.80
17571;DHT22;8903;52.220;20.978;2023-04-03T09:44:23;4.00;95.90
17571;DHT22;8903;52.220;20.978;2023-04-03T09:46:51;3.90;96.00
17571;DHT22;8903;52.220;20.978;2023-04-03T09:49:18;4.00;96.30
17571;DHT22;8903;52.220;20.978;2023-04-03T09:51:45;4.00;96.50
17571;DHT22;8903;52.220;20.978;2023-04-03T09:54:31;4.10;96.70
17571;DHT22;8903;52.220;20.978;2023-04-03T09:57:03;4.00;96.60
17571;DHT22;8903;52.220;20.978;2023-04-03T09:59:32;4.00;95.80
17571;DHT22;8903;52.220;20.978;2023-04-03T10:02:02;3.90;95.80
17571;DHT22;8903;52.220;20.978;2023-04-03T10:04:40;3.80;95.40
17571;DHT22;8903;52.220;20.978;2023-04-03T10:07:31;3.90;96.00
17571;DHT22;8903;52.220;20.978;2023-04-03T10:10:00;3.90;95.80
17571;DHT22;8903;52.220;20.978;2023-04-03T10:12:30;4.00;95.80
17571;DHT22;8903;52.220;20.978;2023-04-03T10:14:58;4.00;95.00
17571;DHT22;8903;52.220;20.978;2023-04-03T10:17:47;4.00;95.00
17571;DHT22;8903;52.220;20.978;2023-04-03T10:20:27;4.10;95.30
17571;DHT22;8903;52.220;20.978;2023-04-03T10:23:02;4.30;95.10
17571;DHT22;8903;52.220;20.978;2023-04-03T10:25:35;4.40;95.10
17571;DHT22;8903;52.220;20.978;2023-04-03T10:28:09;4.50;95.20
17571;DHT22;8903;52.220;20.978;2023-04-03T10:30:46;4.40;95.50
17571;DHT22;8903;52.220;20.978;2023-04-03T10:33:30;4.40;94.30
17571;DHT22;8903;52.220;20.978;2023-04-03T10:36:10;4.40;94.90
17571;DHT22;8903;52.220;20.978;2023-04-03T10:38:46;4.50;94.70
17571;DHT22;8903;52.220;20.978;2023-04-03T10:41:19;4.50;94.20
17571;DHT22;8903;52.220;20.978;2023-04-03T10:43:58;4.40;94.00
17571;DHT22;8903;52.220;20.978;2023-04-03T10:46:35;4.40;94.40
17571;DHT22;8903;52.220;20.978;2023-04-03T10:49:17;4.50;94.70
17571;DHT22;8903;52.220;20.978;2023-04-03T10:51:48;4.40;93.80
17571;DHT22;8903;52.220;20.978;2023-04-03T10:54:19;4.40;94.20
17571;DHT22;8903;52.220;20.978;2023-04-03T10:56:48;4.50;93.90
17571;DHT22;8903;52.220;20.978;2023-04-03T10:59:24;4.50;93.50
17571;DHT22;8903;52.220;20.978;2023-04-03T11:01:55;4.60;93.60
17571;DHT22;8903;52.220;20.978;2023-04-03T11:04:25;4.70;93.70
17571;DHT22;8903;52.220;20.978;2023-04-03T11:06:57;4.80;94.30
17571;DHT22;8903;52.220;20.978;2023-04-03T11:09:27;5.10;93.90
17571;DHT22;8903;52.220;20.978;2023-04-03T11:11:58;5.30;93.40
17571;DHT22;8903;52.220;20.978;2023-04-03T11:14:31;5.40;93.60
17571;DHT22;8903;52.220;20.978;2023-04-03T11:17:06;5.40;92.40
17571;DHT22;8903;52.220;20.978;2023-04-03T11:19:36;5.40;93.00
17571;DHT22;8903;52.220;20.978;2023-04-03T11:22:11;5.40;93.50
17571;DHT22;8903;52.220;20.978;2023-04-03T11:24:43;5.40;93.10
17571;DHT22;8903;52.220;20.978;2023-04-03T11:27:17;5.40;93.60
17571;DHT22;8903;52.220;20.978;2023-04-03T11:29:50;5.50;93.60
17571;DHT22;8903;52.220;20.978;2023-04-03T11:32:32;5.70;92.90
17571;DHT22;8903;52.220;20.978;2023-04-03T11:35:02;5.90;93.00
17571;DHT22;8903;52.220;20.978;2023-04-03T11:37:34;8.10;90.50
17571;DHT22;8903;52.220;20.978;2023-04-03T11:40:05;7.40;90.40
17571;DHT22;8903;52.220;20.978;2023-04-03T11:42:37;6.70;90.90
17571;DHT22;8903;52.220;20.978;2023-04-03T11:45:33;7.10;90.20
17571;DHT22;8903;52.220;20.978;2023-04-03T11:48:02;8.20;89.70
17571;DHT22;8903;52.220;20.978;2023-04-03T11:50:42;8.40;87.80
17571;DHT22;8903;52.220;20.978;2023-04-03T11:53:34;7.90;87.70
17571;DHT22;8903;52.220;20.978;2023-04-03T11:56:04;7.10;89.50
17571;DHT22;8903;52.220;20.978;2023-04-03T11:59:21;6.80;90.30
17571;DHT22;8903;52.220;20.978;2023-04-03T12:01:50;7.00;90.30
17571;DHT22;8903;52.220;20.978;2023-04-03T12:04:18;7.40;89.80
17571;DHT22;8903;52.220;20.978;2023-04-03T12:07:01;7.80;89.40
17571;DHT22;8903;52.220;20.978;2023-04-03T12:09:34;8.50;89.80
17571;DHT22;8903;52.220;20.978;2023-04-03T12:15:25;8.30;88.20
17571;DHT22;8903;52.220;20.978;2023-04-03T12:17:52;7.90;89.00
17571;DHT22;8903;52.220;20.978;2023-04-03T12:20:54;7.60;90.20
17571;DHT22;8903;52.220;20.978;2023-04-03T12:23:27;7.30;90.10
17571;DHT22;8903;52.220;20.978;2023-04-03T12:26:19;6.60;89.30
17571;DHT22;8903;52.220;20.978;2023-04-03T12:28:48;6.70;90.20
17571;DHT22;8903;52.220;20.978;2023-04-03T12:31:20;7.30;89.70
17571;DHT22;8903;52.220;20.978;2023-04-03T12:34:05;7.60;89.30
17571;DHT22;8903;52.220;20.978;2023-04-03T12:36:44;7.70;89.70
17571;DHT22;8903;52.220;20.978;2023-04-03T12:39:33;7.50;89.20
17571;DHT22;8903;52.220;20.978;2023-04-03T12:42:16;7.40;89.40
17571;DHT22;8903;52.220;20.978;2023-04-03T12:44:52;7.80;89.10
17571;DHT22;8903;52.220;20.978;2023-04-03T12:47:26;8.10;88.20
17571;DHT22;8903;52.220;20.978;2023-04-03T12:49:54;7.90;88.00
17571;DHT22;8903;52.220;20.978;2023-04-03T12:52:41;7.70;88.20
17571;DHT22;8903;52.220;20.978;2023-04-03T12:55:17;7.30;88.60
17571;DHT22;8903;52.220;20.978;2023-04-03T12:57:44;7.00;89.70
17571;DHT22;8903;52.220;20.978;2023-04-03T13:00:32;7.20;88.50
17571;DHT22;8903;52.220;20.978;2023-04-03T13:03:02;7.60;89.60
17571;DHT22;8903;52.220;20.978;2023-04-03T13:05:31;7.90;87.90
17571;DHT22;8903;52.220;20.978;2023-04-03T13:08:00;8.20;84.80
17571;DHT22;8903;52.220;20.978;2023-04-03T13:10:29;8.50;85.10
17571;DHT22;8903;52.220;20.978;2023-04-03T13:12:58;8.50;85.80
17571;DHT22;8903;52.220;20.978;2023-04-03T13:15:28;8.70;85.60
17571;DHT22;8903;52.220;20.978;2023-04-03T13:17:57;8.60;85.40
17571;DHT22;8903;52.220;20.978;2023-04-03T13:20:27;8.30;86.00
17571;DHT22;8903;52.220;20.978;2023-04-03T13:22:59;7.60;86.10
17571;DHT22;8903;52.220;20.978;2023-04-03T13:25:30;7.20;87.00
17571;DHT22;8903;52.220;20.978;2023-04-03T13:27:59;6.90;87.40
17571;DHT22;8903;52.220;20.978;2023-04-03T13:30:30;6.70;88.40
17571;DHT22;8903;52.220;20.978;2023-04-03T13:33:01;6.80;90.00
17571;DHT22;8903;52.220;20.978;2023-04-03T13:35:36;7.00;89.30
17571;DHT22;8903;52.220;20.978;2023-04-03T13:38:19;7.30;88.30
17571;DHT22;8903;52.220;20.978;2023-04-03T13:40:49;7.40;88.70
17571;DHT22;8903;52.220;20.978;2023-04-03T13:43:22;7.40;88.20
17571;DHT22;8903;52.220;20.978;2023-04-03T13:46:06;7.30;88.50
17571;DHT22;8903;52.220;20.978;2023-04-03T13:48:49;7.20;90.00
17571;DHT22;8903;52.220;20.978;2023-04-03T13:51:23;7.10;89.40
17571;DHT22;8903;52.220;20.978;2023-04-03T13:53:53;7.00;89.20
17571;DHT22;8903;52.220;20.978;2023-04-03T13:56:27;6.80;89.60
17571;DHT22;8903;52.220;20.978;2023-04-03T13:59:04;6.90;90.00
17571;DHT22;8903;52.220;20.978;2023-04-03T14:01:41;6.90;90.10
17571;DHT22;8903;52.220;20.978;2023-04-03T14:04:13;6.80;89.00
17571;DHT22;8903;52.220;20.978;2023-04-03T14:06:42;6.70;89.70
17571;DHT22;8903;52.220;20.978;2023-04-03T14:09:10;6.50;89.10
17571;DHT22;8903;52.220;20.978;2023-04-03T14:11:37;6.40;90.00
17571;DHT22;8903;52.220;20.978;2023-04-03T14:14:12;6.40;89.70
17571;DHT22;8903;52.220;20.978;2023-04-03T14:16:43;6.40;90.10
17571;DHT22;8903;52.220;20.978;2023-04-03T14:19:18;6.40;90.10
17571;DHT22;8903;52.220;20.978;2023-04-03T14:21:46;6.30;90.40
17571;DHT22;8903;52.220;20.978;2023-04-03T14:24:13;6.30;90.40
17571;DHT22;8903;52.220;20.978;2023-04-03T14:26:42;6.30;90.50
17571;DHT22;8903;52.220;20.978;2023-04-03T14:29:11;6.30;90.20
17571;DHT22;8903;52.220;20.978;2023-04-03T14:31:38;6.20;90.30
17571;DHT22;8903;52.220;20.978;2023-04-03T14:34:06;6.20;90.60
17571;DHT22;8903;52.220;20.978;2023-04-03T14:36:33;6.10;90.00
17571;DHT22;8903;52.220;20.978;2023-04-03T14:39:02;6.00;90.50
17571;DHT22;8903;52.220;20.978;2023-04-03T14:41:30;6.10;90.90
17571;DHT22;8903;52.220;20.978;2023-04-03T14:43:57;6.20;90.30
17571;DHT22;8903;52.220;20.978;2023-04-03T14:46:26;6.10;90.10
17571;DHT22;8903;52.220;20.978;2023-04-03T14:48:55;6.10;90.40
17571;DHT22;8903;52.220;20.978;2023-04-03T14:51:22;6.00;90.30
17571;DHT22;8903;52.220;20.978;2023-04-03T14:53:49;6.00;90.60
17571;DHT22;8903;52.220;20.978;2023-04-03T14:56:21;5.90;90.60
17571;DHT22;8903;52.220;20.978;2023-04-03T14:58:49;5.80;90.90
17571;DHT22;8903;52.220;20.978;2023-04-03T15:01:18;5.80;91.00
17571;DHT22;8903;52.220;20.978;2023-04-03T15:03:45;5.90;90.90
17571;DHT22;8903;52.220;20.978;2023-04-03T15:06:13;5.80;90.90
17571;DHT22;8903;52.220;20.978;2023-04-03T15:08:41;5.80;91.30
17571;DHT22;8903;52.220;20.978;2023-04-03T15:11:09;5.80;90.60
17571;DHT22;8903;52.220;20.978;2023-04-03T15:13:38;5.80;90.80
17571;DHT22;8903;52.220;20.978;2023-04-03T15:16:10;5.80;90.70
17571;DHT22;8903;52.220;20.978;2023-04-03T15:18:40;5.80;90.80
17571;DHT22;8903;52.220;20.978;2023-04-03T15:21:08;5.70;90.80
17571;DHT22;8903;52.220;20.978;2023-04-03T15:23:34;5.70;90.70
17571;DHT22;8903;52.220;20.978;2023-04-03T15:26:02;5.70;91.10
17571;DHT22;8903;52.220;20.978;2023-04-03T15:28:32;5.70;91.20
17571;DHT22;8903;52.220;20.978;2023-04-03T15:31:01;5.70;91.40
17571;DHT22;8903;52.220;20.978;2023-04-03T15:33:29;5.70;91.40
17571;DHT22;8903;52.220;20.978;2023-04-03T15:35:56;5.70;91.50
17571;DHT22;8903;52.220;20.978;2023-04-03T15:38:23;5.70;92.10
17571;DHT22;8903;52.220;20.978;2023-04-03T15:40:50;5.70;92.40
17571;DHT22;8903;52.220;20.978;2023-04-03T15:43:17;5.70;92.50
17571;DHT22;8903;52.220;20.978;2023-04-03T15:45:45;5.70;92.60
17571;DHT22;8903;52.220;20.978;2023-04-03T15:48:13;5.70;92.70
17571;DHT22;8903;52.220;20.978;2023-04-03T15:50:41;5.70;92.80
17571;DHT22;8903;52.220;20.978;2023-04-03T15:53:08;5.70;92.20
17571;DHT22;8903;52.220;20.978;2023-04-03T15:55:36;5.60;92.00
17571;DHT22;8903;52.220;20.978;2023-04-03T15:58:04;5.50;92.00
17571;DHT22;8903;52.220;20.978;2023-04-03T16:00:32;5.40;92.00
17571;DHT22;8903;52.220;20.978;2023-04-03T16:03:02;5.40;92.10
17571;DHT22;8903;52.220;20.978;2023-04-03T16:05:32;5.40;92.10
17571;DHT22;8903;52.220;20.978;2023-04-03T16:08:01;5.30;92.40
17571;DHT22;8903;52.220;20.978;2023-04-03T16:10:28;5.30;92.00